Ellenton, FL (34222)

2:41 PM EDT on October 31, 2014 (GMT -0400)
KFLPALME6 | Change Station
CLOSE
Current Station
Personal Weather Station
Location: Palmetto, FL
Elevation: 30 ft
Nearby Weather Stations
Active Advisory: Lake Wind Advisory

Elev 30 ft 27.53 °N, 82.57 °W | Updated 1 minute ago

Partly Cloudy
Partly Cloudy
73.5 °F
Feels Like 76 °F
N
12.0
Wind Variable Wind from NNW
Gusts 12.0 mph

Today
High -- | Low -- °F
--% Chance of Precip.
Yesterday
High -- | Low -- °F
Precip. -- in
7:39 AM 6:46 PM
First Quarter, 57% visible
Pressure 29.86 in
Visibility 10.0 miles
Clouds Scattered Clouds 3600 ft
Heat Index 76 °F
Dew Point 60 °F
Humidity 62%
Rainfall 0.00 in
Snow Depth Not available.
UV 7 out of 12
Pollen 4.90 out of 12
Air Quality Not available.
Flu Activity Not available.
METAR KSRQ 311753Z 33013G19KT 10SM SCT036 24/15 A2985 RMK AO2 SLP109 T02440150 10250 20211 58015

More Conditions Fewer Conditions

Pressure 29.86 in
Visibility 10.0 miles
Clouds Scattered Clouds 3600 ft
Heat Index 76 °F
Dew Point 60 °F
Humidity 62%
Rainfall 0.00 in
Snow Depth Not available.
UV 7 out of 12
Pollen 4.90 out of 12
Air Quality Not available.
Flu Activity Not available.
METAR KSRQ 311753Z 33013G19KT 10SM SCT036 24/15 A2985 RMK AO2 SLP109 T02440150 10250 20211 58015

More Conditions Fewer Conditions

10-Day Weather Forecast

Almanac

Astronomy

Oct. 31, 2014 Rise Set
Actual Time
Civil Twilight
Nautical Twilight
Astronomical Twilight
Moon
Length of Visible Light
Length of Day
Tomorrow will be .
, % of the Moon is Illuminated

Today's Extremes

State Highs State Lows

Community

WunderPhotos

Upload Photos

1,766,690 photos uploaded!

WunderBlogs® & News

Nearby

Air Quality

  Air Quality AQ Index Pollutant
Not available.

Snow Depth

Station Depth Elevation

Earthquake Activity

City Distance Mag. Time & Date
Minimum magnitude displayed is 2.5.

Coastal Water Temperatures

Place Temperature

Nearby Weather Stations